Harding, Kansas
Current Conditions -  °F | °C
As of 9:55 AM on Sunday 23 Nov 2014 (Local Time) from KPTS Reporting Station
Overcast Overcast  
Wind Chill: 61°   Ceiling: 1400
Heat Index: 61°   Visibility: 10mi
Dew Point: 59°   Wind: 12mph
Humidity: 92%   Direction: 200°SSW
Pressure: 29.48"   Gusts: 17mph
Location:  38.0179°N, 94.8751°W
Report Text: KPTS 231555Z AUTO 20010G15KT 10SM BKN014 BKN020 OVC034 16/15 A2948 RMK AO2 T01610148
Loading
Personal Weather Stations






























Interactive Weather Map New forecast layout! Learn more

10-Day Weather Forecast

Advertisements
Track Severe Weather on mobile